Congonhinhas, Brazil
Current Conditions -  °F | °C
As of 4:00 AM on Saturday 29 Nov 2014 (Local Time) from SBLO Reporting Station
Clear Clear  
Wind Chill: 70°   Ceiling: Unl
Heat Index: 70°   Visibility: 6mi
Dew Point: 61°   Wind: 15mph
Humidity: 73%   Direction: 120°ESE
Pressure: 30"   Gusts: NA
Location:  23.55°S, 50.55°W
Report Text: SBLO 290600Z 12013KT CAVOK 21/16 Q1016
Loading
Personal Weather Stations






























Interactive Weather Map New forecast layout! Learn more

10-Day Weather Forecast

Advertisements
Track Severe Weather on mobile